Nimbus Weather Services

Informe meteorológico para Carrasco, Uruguay. El informe se hizo hace 49 minutos, a las 03:00 UTC. El viento soplaba a una velocidad de 1.0 m/s (2.3 millas por hora) del este-sureste (120°). La temperatura era 8 °C (46 °F), con un punto de rocío de 7 °C (45 °F). La presión atmosférica era 1031 hPa (30.45 inHg). Había una humedad relativa del 93.4%. Cielo: la visibilidad vertical era 61 metros (200 pies). En aquel momento la visibilidad global era 100 metros (328 pies). La visibilidad era 400 metros (1312 pies) con tendencia a bajar para la pista 24 y 450 metros (1476 pies) sin tendencia marcada para la pista 19. Actualmente niebla.

La clave METAR es: SUMU 020300Z 12002KT 0100 R24/0400D R19/0450N FG VV002 08/07 Q1031 TEMPO 0800 FG

Consulta realizada el Lunes 2 de Agosto de 2021 0:49. Tiempo usado para generar esta pagina:14,677 ms.